sensor_id;sensor_type;location;lat;lon;timestamp;temperature;humidity
35043;DHT22;21230;51.170;17.024;2022-07-23T00:00:12;20.80;99.90
35043;DHT22;21230;51.170;17.024;2022-07-23T00:02:37;20.70;99.90
35043;DHT22;21230;51.170;17.024;2022-07-23T00:05:03;20.60;99.90
35043;DHT22;21230;51.170;17.024;2022-07-23T00:07:29;20.60;99.90
35043;DHT22;21230;51.170;17.024;2022-07-23T00:09:54;20.50;99.90
35043;DHT22;21230;51.170;17.024;2022-07-23T00:12:20;20.40;99.90
35043;DHT22;21230;51.170;17.024;2022-07-23T00:14:46;20.30;99.90
35043;DHT22;21230;51.170;17.024;2022-07-23T00:17:11;20.30;99.90
35043;DHT22;21230;51.170;17.024;2022-07-23T00:19:37;20.10;99.90
35043;DHT22;21230;51.170;17.024;2022-07-23T00:22:03;20.10;99.90
35043;DHT22;21230;51.170;17.024;2022-07-23T00:24:29;20.10;99.90
35043;DHT22;21230;51.170;17.024;2022-07-23T00:26:54;20.10;99.90
35043;DHT22;21230;51.170;17.024;2022-07-23T00:29:20;20.00;99.90
35043;DHT22;21230;51.170;17.024;2022-07-23T00:31:45;19.80;99.90
35043;DHT22;21230;51.170;17.024;2022-07-23T00:34:11;19.80;99.90
35043;DHT22;21230;51.170;17.024;2022-07-23T00:36:37;19.70;99.90
35043;DHT22;21230;51.170;17.024;2022-07-23T00:39:02;19.60;99.90
35043;DHT22;21230;51.170;17.024;2022-07-23T00:41:28;19.50;99.90
35043;DHT22;21230;51.170;17.024;2022-07-23T00:43:53;19.50;99.90
35043;DHT22;21230;51.170;17.024;2022-07-23T00:46:20;19.50;99.90
35043;DHT22;21230;51.170;17.024;2022-07-23T00:48:45;19.60;99.90
35043;DHT22;21230;51.170;17.024;2022-07-23T00:51:11;19.60;99.90
35043;DHT22;21230;51.170;17.024;2022-07-23T00:53:37;19.60;99.90
35043;DHT22;21230;51.170;17.024;2022-07-23T00:56:02;19.60;99.90
35043;DHT22;21230;51.170;17.024;2022-07-23T00:58:28;19.60;99.90
35043;DHT22;21230;51.170;17.024;2022-07-23T01:00:54;19.60;99.90
35043;DHT22;21230;51.170;17.024;2022-07-23T01:03:19;19.60;99.90
35043;DHT22;21230;51.170;17.024;2022-07-23T01:05:45;19.50;99.90
35043;DHT22;21230;51.170;17.024;2022-07-23T01:08:11;19.40;99.90
35043;DHT22;21230;51.170;17.024;2022-07-23T01:10:37;19.40;99.90
35043;DHT22;21230;51.170;17.024;2022-07-23T01:13:07;19.40;99.90
35043;DHT22;21230;51.170;17.024;2022-07-23T01:15:34;19.40;99.90
35043;DHT22;21230;51.170;17.024;2022-07-23T01:18:00;19.40;99.90
35043;DHT22;21230;51.170;17.024;2022-07-23T01:20:26;19.50;99.90
35043;DHT22;21230;51.170;17.024;2022-07-23T01:22:52;19.70;99.90
35043;DHT22;21230;51.170;17.024;2022-07-23T01:25:17;19.70;99.90
35043;DHT22;21230;51.170;17.024;2022-07-23T01:27:43;19.70;99.90
35043;DHT22;21230;51.170;17.024;2022-07-23T01:30:09;19.60;99.90
35043;DHT22;21230;51.170;17.024;2022-07-23T01:32:35;19.50;99.90
35043;DHT22;21230;51.170;17.024;2022-07-23T01:35:02;19.40;99.90
35043;DHT22;21230;51.170;17.024;2022-07-23T01:37:28;19.40;99.90
35043;DHT22;21230;51.170;17.024;2022-07-23T01:39:54;19.50;99.90
35043;DHT22;21230;51.170;17.024;2022-07-23T01:42:19;19.30;99.90
35043;DHT22;21230;51.170;17.024;2022-07-23T01:44:45;19.20;99.90
35043;DHT22;21230;51.170;17.024;2022-07-23T01:47:10;19.10;99.90
35043;DHT22;21230;51.170;17.024;2022-07-23T01:49:36;19.10;99.90
35043;DHT22;21230;51.170;17.024;2022-07-23T01:52:02;19.00;99.90
35043;DHT22;21230;51.170;17.024;2022-07-23T01:54:28;18.90;99.90
35043;DHT22;21230;51.170;17.024;2022-07-23T01:56:54;18.90;99.90
35043;DHT22;21230;51.170;17.024;2022-07-23T01:59:20;18.80;99.90
35043;DHT22;21230;51.170;17.024;2022-07-23T02:01:46;18.80;99.90
35043;DHT22;21230;51.170;17.024;2022-07-23T02:04:12;18.70;99.90
35043;DHT22;21230;51.170;17.024;2022-07-23T02:06:38;18.70;99.90
35043;DHT22;21230;51.170;17.024;2022-07-23T02:09:03;18.70;99.90
35043;DHT22;21230;51.170;17.024;2022-07-23T02:11:29;18.70;99.90
35043;DHT22;21230;51.170;17.024;2022-07-23T02:13:55;18.60;99.90
35043;DHT22;21230;51.170;17.024;2022-07-23T02:16:20;18.50;99.90
35043;DHT22;21230;51.170;17.024;2022-07-23T02:18:46;18.50;99.90
35043;DHT22;21230;51.170;17.024;2022-07-23T02:21:12;18.40;99.90
35043;DHT22;21230;51.170;17.024;2022-07-23T02:23:38;18.40;99.90
35043;DHT22;21230;51.170;17.024;2022-07-23T02:26:03;18.40;99.90
35043;DHT22;21230;51.170;17.024;2022-07-23T02:28:29;18.40;99.90
35043;DHT22;21230;51.170;17.024;2022-07-23T02:30:55;18.40;99.90
35043;DHT22;21230;51.170;17.024;2022-07-23T02:33:20;18.30;99.90
35043;DHT22;21230;51.170;17.024;2022-07-23T02:35:46;18.30;99.90
35043;DHT22;21230;51.170;17.024;2022-07-23T02:38:12;18.40;99.90
35043;DHT22;21230;51.170;17.024;2022-07-23T02:40:37;18.40;99.90
35043;DHT22;21230;51.170;17.024;2022-07-23T02:43:03;18.40;99.90
35043;DHT22;21230;51.170;17.024;2022-07-23T02:45:28;18.40;99.90
35043;DHT22;21230;51.170;17.024;2022-07-23T02:47:54;18.40;99.90
35043;DHT22;21230;51.170;17.024;2022-07-23T02:50:20;18.40;99.90
35043;DHT22;21230;51.170;17.024;2022-07-23T02:52:45;18.40;99.90
35043;DHT22;21230;51.170;17.024;2022-07-23T02:55:11;18.30;99.90
35043;DHT22;21230;51.170;17.024;2022-07-23T02:57:37;18.20;99.90
35043;DHT22;21230;51.170;17.024;2022-07-23T03:00:03;18.20;99.90
35043;DHT22;21230;51.170;17.024;2022-07-23T03:02:29;18.20;99.90
35043;DHT22;21230;51.170;17.024;2022-07-23T03:04:55;18.10;99.90
35043;DHT22;21230;51.170;17.024;2022-07-23T03:07:20;18.10;99.90
35043;DHT22;21230;51.170;17.024;2022-07-23T03:09:46;18.10;99.90
35043;DHT22;21230;51.170;17.024;2022-07-23T03:12:12;18.10;99.90
35043;DHT22;21230;51.170;17.024;2022-07-23T03:14:37;18.20;99.90
35043;DHT22;21230;51.170;17.024;2022-07-23T03:17:03;18.20;99.90
35043;DHT22;21230;51.170;17.024;2022-07-23T03:19:29;18.30;99.90
35043;DHT22;21230;51.170;17.024;2022-07-23T03:21:54;18.30;99.90
35043;DHT22;21230;51.170;17.024;2022-07-23T03:24:20;18.30;99.90
35043;DHT22;21230;51.170;17.024;2022-07-23T03:26:46;18.30;99.90
35043;DHT22;21230;51.170;17.024;2022-07-23T03:29:11;18.40;99.90
35043;DHT22;21230;51.170;17.024;2022-07-23T03:31:37;18.50;99.90
35043;DHT22;21230;51.170;17.024;2022-07-23T03:34:03;18.50;99.90
35043;DHT22;21230;51.170;17.024;2022-07-23T03:36:28;18.60;99.90
35043;DHT22;21230;51.170;17.024;2022-07-23T03:38:54;18.60;99.90
35043;DHT22;21230;51.170;17.024;2022-07-23T03:41:20;18.70;99.90
35043;DHT22;21230;51.170;17.024;2022-07-23T03:43:46;18.70;99.90
35043;DHT22;21230;51.170;17.024;2022-07-23T03:46:12;18.70;99.90
35043;DHT22;21230;51.170;17.024;2022-07-23T03:48:37;18.80;99.90
35043;DHT22;21230;51.170;17.024;2022-07-23T03:51:03;18.90;99.90
35043;DHT22;21230;51.170;17.024;2022-07-23T03:53:29;18.90;99.90
35043;DHT22;21230;51.170;17.024;2022-07-23T03:55:55;18.90;99.90
35043;DHT22;21230;51.170;17.024;2022-07-23T03:58:20;18.90;99.90
35043;DHT22;21230;51.170;17.024;2022-07-23T04:00:46;19.00;99.90
35043;DHT22;21230;51.170;17.024;2022-07-23T04:03:11;19.00;99.90
35043;DHT22;21230;51.170;17.024;2022-07-23T04:05:37;19.10;99.90
35043;DHT22;21230;51.170;17.024;2022-07-23T04:08:03;19.10;99.90
35043;DHT22;21230;51.170;17.024;2022-07-23T04:10:28;19.20;99.90
35043;DHT22;21230;51.170;17.024;2022-07-23T04:12:54;19.20;99.90
35043;DHT22;21230;51.170;17.024;2022-07-23T04:15:20;19.10;99.90
35043;DHT22;21230;51.170;17.024;2022-07-23T04:17:45;19.20;99.90
35043;DHT22;21230;51.170;17.024;2022-07-23T04:20:12;19.20;99.90
35043;DHT22;21230;51.170;17.024;2022-07-23T04:22:38;19.30;99.90
35043;DHT22;21230;51.170;17.024;2022-07-23T04:25:04;19.40;99.90
35043;DHT22;21230;51.170;17.024;2022-07-23T04:27:30;19.50;99.90
35043;DHT22;21230;51.170;17.024;2022-07-23T04:29:55;19.60;99.90
35043;DHT22;21230;51.170;17.024;2022-07-23T04:32:21;19.70;99.90
35043;DHT22;21230;51.170;17.024;2022-07-23T04:34:46;19.70;99.90
35043;DHT22;21230;51.170;17.024;2022-07-23T04:37:12;19.60;99.90
35043;DHT22;21230;51.170;17.024;2022-07-23T04:39:38;19.40;99.90
35043;DHT22;21230;51.170;17.024;2022-07-23T04:42:03;19.30;99.90
35043;DHT22;21230;51.170;17.024;2022-07-23T04:44:29;19.30;99.90
35043;DHT22;21230;51.170;17.024;2022-07-23T04:46:54;19.40;99.90
35043;DHT22;21230;51.170;17.024;2022-07-23T04:49:20;19.50;99.90
35043;DHT22;21230;51.170;17.024;2022-07-23T04:51:46;19.70;99.90
35043;DHT22;21230;51.170;17.024;2022-07-23T04:54:14;19.80;99.90
35043;DHT22;21230;51.170;17.024;2022-07-23T04:56:44;20.10;99.90
35043;DHT22;21230;51.170;17.024;2022-07-23T04:59:10;20.30;99.90
35043;DHT22;21230;51.170;17.024;2022-07-23T05:01:35;20.50;99.90
35043;DHT22;21230;51.170;17.024;2022-07-23T05:04:01;20.80;99.90
35043;DHT22;21230;51.170;17.024;2022-07-23T05:06:27;21.00;99.90
35043;DHT22;21230;51.170;17.024;2022-07-23T05:08:52;21.20;99.90
35043;DHT22;21230;51.170;17.024;2022-07-23T05:11:18;21.40;99.90
35043;DHT22;21230;51.170;17.024;2022-07-23T05:13:43;21.60;99.90
35043;DHT22;21230;51.170;17.024;2022-07-23T05:16:09;21.70;99.90
35043;DHT22;21230;51.170;17.024;2022-07-23T05:18:35;21.80;99.90
35043;DHT22;21230;51.170;17.024;2022-07-23T05:21:00;21.80;99.90
35043;DHT22;21230;51.170;17.024;2022-07-23T05:23:29;21.80;99.90
35043;DHT22;21230;51.170;17.024;2022-07-23T05:25:55;21.90;99.90
35043;DHT22;21230;51.170;17.024;2022-07-23T05:28:20;22.10;99.90
35043;DHT22;21230;51.170;17.024;2022-07-23T05:30:46;22.20;99.90
35043;DHT22;21230;51.170;17.024;2022-07-23T05:33:12;22.30;99.90
35043;DHT22;21230;51.170;17.024;2022-07-23T05:35:37;22.40;99.90
35043;DHT22;21230;51.170;17.024;2022-07-23T05:38:03;22.50;99.90
35043;DHT22;21230;51.170;17.024;2022-07-23T05:40:30;22.50;99.90
35043;DHT22;21230;51.170;17.024;2022-07-23T05:42:56;22.60;99.90
35043;DHT22;21230;51.170;17.024;2022-07-23T05:45:21;22.70;99.90
35043;DHT22;21230;51.170;17.024;2022-07-23T05:47:49;22.80;99.90
35043;DHT22;21230;51.170;17.024;2022-07-23T05:50:15;22.90;99.90
35043;DHT22;21230;51.170;17.024;2022-07-23T05:52:41;23.00;99.90
35043;DHT22;21230;51.170;17.024;2022-07-23T05:55:07;23.00;99.90
35043;DHT22;21230;51.170;17.024;2022-07-23T05:57:34;23.00;99.90
35043;DHT22;21230;51.170;17.024;2022-07-23T05:59:59;23.00;99.90
35043;DHT22;21230;51.170;17.024;2022-07-23T06:02:25;23.10;99.90
35043;DHT22;21230;51.170;17.024;2022-07-23T06:04:51;23.20;99.90
35043;DHT22;21230;51.170;17.024;2022-07-23T06:07:17;23.40;99.90
35043;DHT22;21230;51.170;17.024;2022-07-23T06:09:42;23.50;99.90
35043;DHT22;21230;51.170;17.024;2022-07-23T06:12:08;23.60;99.90
35043;DHT22;21230;51.170;17.024;2022-07-23T06:14:33;23.70;99.90
35043;DHT22;21230;51.170;17.024;2022-07-23T06:16:59;23.70;99.90
35043;DHT22;21230;51.170;17.024;2022-07-23T06:19:27;23.70;99.90
35043;DHT22;21230;51.170;17.024;2022-07-23T06:21:56;23.70;99.90
35043;DHT22;21230;51.170;17.024;2022-07-23T06:24:22;23.70;99.90
35043;DHT22;21230;51.170;17.024;2022-07-23T06:26:48;23.60;99.90
35043;DHT22;21230;51.170;17.024;2022-07-23T06:29:13;23.70;99.90
35043;DHT22;21230;51.170;17.024;2022-07-23T06:31:39;23.70;99.90
35043;DHT22;21230;51.170;17.024;2022-07-23T06:34:05;23.80;99.90
35043;DHT22;21230;51.170;17.024;2022-07-23T06:36:30;24.00;99.90
35043;DHT22;21230;51.170;17.024;2022-07-23T06:38:56;24.10;99.90
35043;DHT22;21230;51.170;17.024;2022-07-23T06:41:21;24.20;99.90
35043;DHT22;21230;51.170;17.024;2022-07-23T06:43:48;24.30;99.90
35043;DHT22;21230;51.170;17.024;2022-07-23T06:46:14;24.40;99.90
35043;DHT22;21230;51.170;17.024;2022-07-23T06:48:39;24.50;99.90
35043;DHT22;21230;51.170;17.024;2022-07-23T06:51:05;24.60;99.90
35043;DHT22;21230;51.170;17.024;2022-07-23T06:53:31;24.70;99.90
35043;DHT22;21230;51.170;17.024;2022-07-23T06:55:56;24.80;99.90
35043;DHT22;21230;51.170;17.024;2022-07-23T06:58:22;24.80;99.90
35043;DHT22;21230;51.170;17.024;2022-07-23T07:00:47;24.80;99.90
35043;DHT22;21230;51.170;17.024;2022-07-23T07:03:13;25.00;99.90
35043;DHT22;21230;51.170;17.024;2022-07-23T07:05:38;25.10;98.30
35043;DHT22;21230;51.170;17.024;2022-07-23T07:08:07;25.10;99.20
35043;DHT22;21230;51.170;17.024;2022-07-23T07:10:33;25.20;98.60
35043;DHT22;21230;51.170;17.024;2022-07-23T07:12:58;25.20;99.00
35043;DHT22;21230;51.170;17.024;2022-07-23T07:15:24;25.20;99.90
35043;DHT22;21230;51.170;17.024;2022-07-23T07:17:49;25.20;98.90
35043;DHT22;21230;51.170;17.024;2022-07-23T07:20:15;25.20;99.30
35043;DHT22;21230;51.170;17.024;2022-07-23T07:22:41;25.20;99.90
35043;DHT22;21230;51.170;17.024;2022-07-23T07:25:06;25.20;99.90
35043;DHT22;21230;51.170;17.024;2022-07-23T07:27:32;25.10;99.90
35043;DHT22;21230;51.170;17.024;2022-07-23T07:29:58;25.20;99.90
35043;DHT22;21230;51.170;17.024;2022-07-23T07:32:23;25.20;99.90
35043;DHT22;21230;51.170;17.024;2022-07-23T07:34:49;25.30;99.90
35043;DHT22;21230;51.170;17.024;2022-07-23T07:37:15;25.40;99.90
35043;DHT22;21230;51.170;17.024;2022-07-23T07:39:41;25.40;99.90
35043;DHT22;21230;51.170;17.024;2022-07-23T07:42:06;25.50;99.90
35043;DHT22;21230;51.170;17.024;2022-07-23T07:44:32;25.60;99.90
35043;DHT22;21230;51.170;17.024;2022-07-23T07:46:57;25.70;99.90
35043;DHT22;21230;51.170;17.024;2022-07-23T07:49:23;25.80;99.90
35043;DHT22;21230;51.170;17.024;2022-07-23T07:51:49;25.90;97.30
35043;DHT22;21230;51.170;17.024;2022-07-23T07:54:14;25.80;97.40
35043;DHT22;21230;51.170;17.024;2022-07-23T07:56:40;26.00;96.20
35043;DHT22;21230;51.170;17.024;2022-07-23T07:59:06;26.00;96.70
35043;DHT22;21230;51.170;17.024;2022-07-23T08:01:31;26.10;96.00
35043;DHT22;21230;51.170;17.024;2022-07-23T08:03:57;26.20;96.00
35043;DHT22;21230;51.170;17.024;2022-07-23T08:06:23;26.30;94.40
35043;DHT22;21230;51.170;17.024;2022-07-23T08:08:48;26.30;95.40
35043;DHT22;21230;51.170;17.024;2022-07-23T08:11:14;26.40;94.40
35043;DHT22;21230;51.170;17.024;2022-07-23T08:13:40;26.50;92.40
35043;DHT22;21230;51.170;17.024;2022-07-23T08:16:06;26.50;91.30
35043;DHT22;21230;51.170;17.024;2022-07-23T08:18:32;26.50;92.10
35043;DHT22;21230;51.170;17.024;2022-07-23T08:20:57;26.60;93.80
35043;DHT22;21230;51.170;17.024;2022-07-23T08:23:23;26.70;93.10
35043;DHT22;21230;51.170;17.024;2022-07-23T08:25:49;26.80;91.50
35043;DHT22;21230;51.170;17.024;2022-07-23T08:28:14;26.90;91.70
35043;DHT22;21230;51.170;17.024;2022-07-23T08:30:41;27.00;90.10
35043;DHT22;21230;51.170;17.024;2022-07-23T08:33:08;27.20;90.20
35043;DHT22;21230;51.170;17.024;2022-07-23T08:35:37;27.10;83.10
35043;DHT22;21230;51.170;17.024;2022-07-23T08:38:04;27.20;82.00
35043;DHT22;21230;51.170;17.024;2022-07-23T08:40:31;27.10;80.60
35043;DHT22;21230;51.170;17.024;2022-07-23T08:42:57;27.30;82.10
35043;DHT22;21230;51.170;17.024;2022-07-23T08:45:23;27.30;82.10
35043;DHT22;21230;51.170;17.024;2022-07-23T08:47:53;27.50;84.60
35043;DHT22;21230;51.170;17.024;2022-07-23T08:50:19;27.60;80.70
35043;DHT22;21230;51.170;17.024;2022-07-23T08:52:45;27.70;80.60
35043;DHT22;21230;51.170;17.024;2022-07-23T08:55:11;27.70;80.40
35043;DHT22;21230;51.170;17.024;2022-07-23T08:57:37;27.80;78.70
35043;DHT22;21230;51.170;17.024;2022-07-23T09:00:04;27.80;78.10
35043;DHT22;21230;51.170;17.024;2022-07-23T09:02:30;27.90;77.80
35043;DHT22;21230;51.170;17.024;2022-07-23T09:04:56;27.90;76.10
35043;DHT22;21230;51.170;17.024;2022-07-23T09:07:22;27.90;78.20
35043;DHT22;21230;51.170;17.024;2022-07-23T09:09:50;28.10;76.20
35043;DHT22;21230;51.170;17.024;2022-07-23T09:12:29;28.10;75.50
35043;DHT22;21230;51.170;17.024;2022-07-23T09:14:55;28.10;71.10
35043;DHT22;21230;51.170;17.024;2022-07-23T09:17:20;28.00;73.30
35043;DHT22;21230;51.170;17.024;2022-07-23T09:19:46;27.80;73.10
35043;DHT22;21230;51.170;17.024;2022-07-23T09:22:16;27.80;73.60
35043;DHT22;21230;51.170;17.024;2022-07-23T09:27:44;27.90;74.20
35043;DHT22;21230;51.170;17.024;2022-07-23T09:30:10;27.90;68.30
35043;DHT22;21230;51.170;17.024;2022-07-23T09:32:36;27.80;71.10
35043;DHT22;21230;51.170;17.024;2022-07-23T09:35:01;27.70;70.90
35043;DHT22;21230;51.170;17.024;2022-07-23T09:37:27;27.50;70.40
35043;DHT22;21230;51.170;17.024;2022-07-23T09:39:53;27.50;70.20
35043;DHT22;21230;51.170;17.024;2022-07-23T09:42:28;27.40;72.20
35043;DHT22;21230;51.170;17.024;2022-07-23T09:44:56;27.20;75.60
35043;DHT22;21230;51.170;17.024;2022-07-23T09:47:24;26.90;77.70
35043;DHT22;21230;51.170;17.024;2022-07-23T09:50:00;26.80;79.90
35043;DHT22;21230;51.170;17.024;2022-07-23T09:52:31;26.60;81.80
35043;DHT22;21230;51.170;17.024;2022-07-23T09:55:02;26.40;84.90
35043;DHT22;21230;51.170;17.024;2022-07-23T09:57:28;26.20;87.70
35043;DHT22;21230;51.170;17.024;2022-07-23T09:59:56;26.00;91.30
35043;DHT22;21230;51.170;17.024;2022-07-23T10:02:22;25.60;94.20
35043;DHT22;21230;51.170;17.024;2022-07-23T10:04:48;25.30;97.40
35043;DHT22;21230;51.170;17.024;2022-07-23T10:07:14;25.00;99.90
35043;DHT22;21230;51.170;17.024;2022-07-23T10:09:42;24.60;99.90
35043;DHT22;21230;51.170;17.024;2022-07-23T10:12:12;24.00;99.90
35043;DHT22;21230;51.170;17.024;2022-07-23T10:14:57;23.60;99.90
35043;DHT22;21230;51.170;17.024;2022-07-23T10:17:23;23.40;99.90
35043;DHT22;21230;51.170;17.024;2022-07-23T10:19:48;23.30;99.90
35043;DHT22;21230;51.170;17.024;2022-07-23T10:22:15;23.40;99.90
35043;DHT22;21230;51.170;17.024;2022-07-23T10:24:52;23.30;99.90
35043;DHT22;21230;51.170;17.024;2022-07-23T10:32:40;23.20;99.90
35043;DHT22;21230;51.170;17.024;2022-07-23T10:37:44;22.90;99.90
35043;DHT22;21230;51.170;17.024;2022-07-23T10:42:42;23.00;99.90
35043;DHT22;21230;51.170;17.024;2022-07-23T10:53:36;22.80;99.90
35043;DHT22;21230;51.170;17.024;2022-07-23T10:56:15;22.90;99.90
35043;DHT22;21230;51.170;17.024;2022-07-23T10:58:48;23.00;99.90
35043;DHT22;21230;51.170;17.024;2022-07-23T11:04:15;22.80;99.90
35043;DHT22;21230;51.170;17.024;2022-07-23T11:09:24;22.80;99.90
35043;DHT22;21230;51.170;17.024;2022-07-23T11:17:19;23.00;99.90
35043;DHT22;21230;51.170;17.024;2022-07-23T11:20:30;23.00;99.90
35043;DHT22;21230;51.170;17.024;2022-07-23T11:22:37;23.00;99.90
35043;DHT22;21230;51.170;17.024;2022-07-23T11:25:03;23.10;99.90
35043;DHT22;21230;51.170;17.024;2022-07-23T11:27:42;23.10;99.90
35043;DHT22;21230;51.170;17.024;2022-07-23T11:30:08;23.20;99.90
35043;DHT22;21230;51.170;17.024;2022-07-23T11:32:35;23.20;99.90
35043;DHT22;21230;51.170;17.024;2022-07-23T11:35:20;23.20;99.90
35043;DHT22;21230;51.170;17.024;2022-07-23T11:37:51;23.20;99.90
35043;DHT22;21230;51.170;17.024;2022-07-23T11:40:24;23.30;99.90
35043;DHT22;21230;51.170;17.024;2022-07-23T11:42:55;23.30;99.90
35043;DHT22;21230;51.170;17.024;2022-07-23T11:45:24;23.30;99.90
35043;DHT22;21230;51.170;17.024;2022-07-23T11:47:53;23.30;99.90
35043;DHT22;21230;51.170;17.024;2022-07-23T11:50:24;23.30;99.90
35043;DHT22;21230;51.170;17.024;2022-07-23T11:52:53;23.30;99.90
35043;DHT22;21230;51.170;17.024;2022-07-23T11:55:19;23.40;99.90
35043;DHT22;21230;51.170;17.024;2022-07-23T11:57:45;23.20;99.90
35043;DHT22;21230;51.170;17.024;2022-07-23T12:00:15;23.10;99.90
35043;DHT22;21230;51.170;17.024;2022-07-23T12:02:41;23.00;99.90
35043;DHT22;21230;51.170;17.024;2022-07-23T12:05:28;23.00;99.90
35043;DHT22;21230;51.170;17.024;2022-07-23T12:07:57;22.90;99.90
35043;DHT22;21230;51.170;17.024;2022-07-23T12:10:30;22.90;99.90
35043;DHT22;21230;51.170;17.024;2022-07-23T12:13:02;22.90;99.90
35043;DHT22;21230;51.170;17.024;2022-07-23T12:15:30;23.00;99.90
35043;DHT22;21230;51.170;17.024;2022-07-23T12:17:58;23.10;99.90
35043;DHT22;21230;51.170;17.024;2022-07-23T12:20:25;23.20;99.90
35043;DHT22;21230;51.170;17.024;2022-07-23T12:22:52;23.50;99.90
35043;DHT22;21230;51.170;17.024;2022-07-23T12:25:19;23.80;99.90
35043;DHT22;21230;51.170;17.024;2022-07-23T12:27:45;24.10;99.90
35043;DHT22;21230;51.170;17.024;2022-07-23T12:30:15;24.50;99.90
35043;DHT22;21230;51.170;17.024;2022-07-23T12:32:42;24.80;99.90
35043;DHT22;21230;51.170;17.024;2022-07-23T12:35:08;25.00;99.90
35043;DHT22;21230;51.170;17.024;2022-07-23T12:37:37;25.20;99.90
35043;DHT22;21230;51.170;17.024;2022-07-23T12:43:09;25.50;99.90
35043;DHT22;21230;51.170;17.024;2022-07-23T12:45:50;25.90;99.90
35043;DHT22;21230;51.170;17.024;2022-07-23T12:50:57;26.10;99.90
35043;DHT22;21230;51.170;17.024;2022-07-23T12:53:39;26.30;99.90
35043;DHT22;21230;51.170;17.024;2022-07-23T12:56:14;26.30;99.90
35043;DHT22;21230;51.170;17.024;2022-07-23T12:58:49;26.30;99.90
35043;DHT22;21230;51.170;17.024;2022-07-23T13:06:38;26.20;99.90
35043;DHT22;21230;51.170;17.024;2022-07-23T13:09:06;26.20;99.90
35043;DHT22;21230;51.170;17.024;2022-07-23T13:11:33;26.30;99.90
35043;DHT22;21230;51.170;17.024;2022-07-23T13:14:00;26.40;99.90
35043;DHT22;21230;51.170;17.024;2022-07-23T13:16:30;26.60;99.90
35043;DHT22;21230;51.170;17.024;2022-07-23T13:18:57;26.60;99.90
35043;DHT22;21230;51.170;17.024;2022-07-23T13:21:24;26.60;99.90
35043;DHT22;21230;51.170;17.024;2022-07-23T13:23:50;26.60;99.90
35043;DHT22;21230;51.170;17.024;2022-07-23T13:26:16;26.60;99.90
35043;DHT22;21230;51.170;17.024;2022-07-23T13:28:42;26.70;99.90
35043;DHT22;21230;51.170;17.024;2022-07-23T13:31:08;26.70;99.90
35043;DHT22;21230;51.170;17.024;2022-07-23T13:33:35;26.70;99.90
35043;DHT22;21230;51.170;17.024;2022-07-23T13:36:01;26.70;99.90
35043;DHT22;21230;51.170;17.024;2022-07-23T13:38:27;26.70;99.90
35043;DHT22;21230;51.170;17.024;2022-07-23T13:40:53;26.70;99.90
35043;DHT22;21230;51.170;17.024;2022-07-23T13:43:21;26.80;99.90
35043;DHT22;21230;51.170;17.024;2022-07-23T13:45:48;26.90;99.90
35043;DHT22;21230;51.170;17.024;2022-07-23T13:48:14;26.90;99.90
35043;DHT22;21230;51.170;17.024;2022-07-23T13:50:42;27.00;99.90
35043;DHT22;21230;51.170;17.024;2022-07-23T13:53:13;27.10;99.90
35043;DHT22;21230;51.170;17.024;2022-07-23T13:55:39;27.20;99.90
35043;DHT22;21230;51.170;17.024;2022-07-23T13:58:06;27.20;99.90
35043;DHT22;21230;51.170;17.024;2022-07-23T14:00:34;27.20;99.90
35043;DHT22;21230;51.170;17.024;2022-07-23T14:03:00;27.00;99.90
35043;DHT22;21230;51.170;17.024;2022-07-23T14:05:26;27.10;99.90
35043;DHT22;21230;51.170;17.024;2022-07-23T14:07:52;26.90;99.90
35043;DHT22;21230;51.170;17.024;2022-07-23T14:10:21;26.80;99.90
35043;DHT22;21230;51.170;17.024;2022-07-23T14:12:48;26.90;99.90
35043;DHT22;21230;51.170;17.024;2022-07-23T14:15:15;27.00;99.90
35043;DHT22;21230;51.170;17.024;2022-07-23T14:17:42;27.10;99.90
35043;DHT22;21230;51.170;17.024;2022-07-23T14:20:09;27.00;99.90
35043;DHT22;21230;51.170;17.024;2022-07-23T14:22:35;27.10;99.90
35043;DHT22;21230;51.170;17.024;2022-07-23T14:25:01;27.10;99.90
35043;DHT22;21230;51.170;17.024;2022-07-23T14:27:27;27.20;99.90
35043;DHT22;21230;51.170;17.024;2022-07-23T14:29:53;27.10;99.90
35043;DHT22;21230;51.170;17.024;2022-07-23T14:32:19;26.90;99.90
35043;DHT22;21230;51.170;17.024;2022-07-23T14:34:45;26.80;99.90
35043;DHT22;21230;51.170;17.024;2022-07-23T14:37:11;26.70;99.90
35043;DHT22;21230;51.170;17.024;2022-07-23T14:39:37;26.70;99.90
35043;DHT22;21230;51.170;17.024;2022-07-23T14:42:03;26.60;99.90
35043;DHT22;21230;51.170;17.024;2022-07-23T14:44:29;26.50;99.90
35043;DHT22;21230;51.170;17.024;2022-07-23T14:46:54;26.30;99.90
35043;DHT22;21230;51.170;17.024;2022-07-23T14:49:20;26.20;99.90
35043;DHT22;21230;51.170;17.024;2022-07-23T14:51:46;26.00;99.90
35043;DHT22;21230;51.170;17.024;2022-07-23T14:54:12;25.80;99.90
35043;DHT22;21230;51.170;17.024;2022-07-23T14:56:39;25.80;99.90
35043;DHT22;21230;51.170;17.024;2022-07-23T14:59:05;25.80;99.90
35043;DHT22;21230;51.170;17.024;2022-07-23T15:01:31;25.70;99.90
35043;DHT22;21230;51.170;17.024;2022-07-23T15:03:57;25.70;99.90
35043;DHT22;21230;51.170;17.024;2022-07-23T15:06:22;25.70;99.90
35043;DHT22;21230;51.170;17.024;2022-07-23T15:08:48;25.70;99.90
35043;DHT22;21230;51.170;17.024;2022-07-23T15:11:14;25.70;99.90
35043;DHT22;21230;51.170;17.024;2022-07-23T15:13:39;25.80;99.90
35043;DHT22;21230;51.170;17.024;2022-07-23T15:16:05;25.90;99.90
35043;DHT22;21230;51.170;17.024;2022-07-23T15:18:31;25.90;99.90
35043;DHT22;21230;51.170;17.024;2022-07-23T15:20:57;26.00;99.90
35043;DHT22;21230;51.170;17.024;2022-07-23T15:23:23;26.10;99.90
35043;DHT22;21230;51.170;17.024;2022-07-23T15:25:48;26.10;99.90
35043;DHT22;21230;51.170;17.024;2022-07-23T15:28:14;26.00;99.90
35043;DHT22;21230;51.170;17.024;2022-07-23T15:30:40;26.00;99.90
35043;DHT22;21230;51.170;17.024;2022-07-23T15:33:06;25.90;99.90
35043;DHT22;21230;51.170;17.024;2022-07-23T15:35:32;25.90;99.90
35043;DHT22;21230;51.170;17.024;2022-07-23T15:37:57;25.80;99.90
35043;DHT22;21230;51.170;17.024;2022-07-23T15:40:23;25.70;99.90
35043;DHT22;21230;51.170;17.024;2022-07-23T15:42:49;25.70;99.90
35043;DHT22;21230;51.170;17.024;2022-07-23T15:45:14;25.60;99.90
35043;DHT22;21230;51.170;17.024;2022-07-23T15:47:40;25.50;99.90
35043;DHT22;21230;51.170;17.024;2022-07-23T15:50:06;25.50;99.90
35043;DHT22;21230;51.170;17.024;2022-07-23T15:52:32;25.40;99.90
35043;DHT22;21230;51.170;17.024;2022-07-23T15:54:57;25.40;99.90